Time;durP1;ratioP1;P1;durP2;ratioP2;P2;SDS_P1;SDS_P2;PMS_P1;PMS_P2;Temp;Humidity;BMP_temperature;BMP_pressure;BME280_temperature;BME280_humidity;BME280_pressure;Samples;Min_cycle;Max_cycle;Signal;HPM_P1;HPM_P2
2024/02/17 00:01:19;;;;;;;0.80;0.70;;;18.20;93.70;;;;;;4993547;28;20473;-45
2024/02/17 00:03:44;;;;;;;1.33;0.77;;;18.20;93.70;;;;;;4993549;28;20104;-45
2024/02/17 00:06:10;;;;;;;1.10;0.70;;;18.20;93.80;;;;;;4993328;28;20031;-45
2024/02/17 00:08:35;;;;;;;1.05;0.80;;;18.20;93.80;;;;;;4993113;28;20477;-45
2024/02/17 00:11:03;;;;;;;1.17;0.70;;;18.20;93.70;;;;;;4993399;28;20025;-45
2024/02/17 00:13:29;;;;;;;0.90;0.65;;;18.10;93.70;;;;;;4994317;28;20078;-45
2024/02/17 00:15:54;;;;;;;1.05;0.82;;;18.10;93.70;;;;;;4995128;28;20100;-45
2024/02/17 00:18:23;;;;;;;1.00;0.77;;;18.10;93.70;;;;;;4994407;28;20034;-45
2024/02/17 00:20:48;;;;;;;1.35;0.80;;;18.10;93.80;;;;;;4993094;28;20400;-45
2024/02/17 00:23:14;;;;;;;1.15;0.65;;;18.10;93.80;;;;;;4993104;28;20030;-45
2024/02/17 00:25:40;;;;;;;2.10;0.90;;;18.10;93.80;;;;;;4994394;28;20030;-45
2024/02/17 00:28:06;;;;;;;0.93;0.75;;;18.10;93.80;;;;;;4994203;28;20488;-45
2024/02/17 00:30:31;;;;;;;1.10;0.80;;;18.10;93.80;;;;;;4993321;28;20567;-46
2024/02/17 00:32:57;;;;;;;1.30;0.80;;;18.10;93.80;;;;;;4992177;28;20384;-45
2024/02/17 00:35:23;;;;;;;1.10;0.75;;;18.10;93.80;;;;;;4992813;28;20019;-46
2024/02/17 00:37:48;;;;;;;1.98;0.80;;;18.10;93.80;;;;;;4992654;28;20109;-46
2024/02/17 00:40:15;;;;;;;1.20;0.70;;;18.10;93.80;;;;;;4992849;28;20117;-45
2024/02/17 00:42:41;;;;;;;1.30;0.82;;;18.10;93.80;;;;;;4993647;28;20026;-44
2024/02/17 00:45:07;;;;;;;1.80;0.80;;;18.10;93.80;;;;;;4992218;28;20030;-45
2024/02/17 00:47:32;;;;;;;1.20;0.70;;;18.10;93.80;;;;;;4992467;28;20026;-45
2024/02/17 00:49:58;;;;;;;0.90;0.70;;;18.10;93.80;;;;;;4992483;28;20385;-45
2024/02/17 00:52:23;;;;;;;1.10;0.75;;;18.10;93.80;;;;;;4992471;28;20144;-44
2024/02/17 00:54:49;;;;;;;1.17;0.80;;;18.10;93.90;;;;;;4992690;28;21326;-45
2024/02/17 00:57:16;;;;;;;1.05;0.80;;;18.10;93.90;;;;;;4992459;28;20378;-45
2024/02/17 00:59:41;;;;;;;0.88;0.70;;;18.10;93.90;;;;;;4992420;28;20032;-45
2024/02/17 01:02:07;;;;;;;1.13;0.77;;;18.10;93.90;;;;;;4992308;28;20105;-45
2024/02/17 01:04:32;;;;;;;0.73;0.60;;;18.10;93.90;;;;;;4992285;28;20034;-45
2024/02/17 01:06:58;;;;;;;1.55;0.73;;;18.10;93.90;;;;;;4992086;28;20072;-45
2024/02/17 01:09:24;;;;;;;1.00;0.60;;;18.10;93.90;;;;;;4992453;28;20030;-44
2024/02/17 01:11:49;;;;;;;1.27;0.70;;;18.10;93.90;;;;;;4992232;28;20077;-45
2024/02/17 01:14:15;;;;;;;1.25;0.68;;;18.00;93.90;;;;;;4992184;28;20520;-45
2024/02/17 01:16:43;;;;;;;0.80;0.60;;;18.10;94.00;;;;;;4992108;28;20393;-45
2024/02/17 01:19:09;;;;;;;1.30;0.70;;;18.00;93.90;;;;;;4992086;28;20085;-45
2024/02/17 01:21:34;;;;;;;1.13;0.60;;;18.00;94.00;;;;;;4992174;28;20030;-46
2024/02/17 01:24:00;;;;;;;2.83;0.77;;;18.00;94.00;;;;;;4992275;28;20088;-44
2024/02/17 01:26:28;;;;;;;1.77;0.63;;;18.00;94.00;;;;;;4991804;28;20060;-45
2024/02/17 01:28:53;;;;;;;2.60;0.75;;;18.00;94.00;;;;;;4992597;28;20038;-44
2024/02/17 01:31:19;;;;;;;1.30;0.70;;;18.00;94.00;;;;;;4992533;28;20392;-45
2024/02/17 01:33:46;;;;;;;1.30;0.65;;;18.00;94.00;;;;;;4991928;28;20074;-45
2024/02/17 01:36:16;;;;;;;1.02;0.70;;;18.00;94.00;;;;;;4991891;28;20053;-46
2024/02/17 01:38:42;;;;;;;1.05;0.73;;;18.00;94.00;;;;;;4991950;28;20026;-45
2024/02/17 01:41:08;;;;;;;1.08;0.93;;;18.00;94.00;;;;;;4992109;28;20100;-45
2024/02/17 01:43:34;;;;;;;0.93;0.73;;;18.00;94.00;;;;;;4993067;28;20061;-44
2024/02/17 01:46:00;;;;;;;1.83;0.98;;;18.00;94.00;;;;;;4997181;28;20088;-45
2024/02/17 01:48:26;;;;;;;1.50;0.85;;;18.00;94.00;;;;;;4995787;28;20548;-45
2024/02/17 01:50:51;;;;;;;1.00;0.80;;;18.00;94.00;;;;;;4995844;28;20493;-46
2024/02/17 01:53:17;;;;;;;1.50;1.02;;;18.00;94.00;;;;;;4996083;28;20054;-45
2024/02/17 01:55:43;;;;;;;0.95;0.70;;;18.00;94.10;;;;;;4995832;28;20313;-44
2024/02/17 01:58:10;;;;;;;1.10;0.80;;;18.00;94.10;;;;;;4995781;28;20023;-45
2024/02/17 02:00:37;;;;;;;1.20;0.70;;;18.00;94.10;;;;;;4995616;28;20112;-45
2024/02/17 02:03:03;;;;;;;2.20;0.93;;;17.90;94.00;;;;;;4995746;28;20026;-46
2024/02/17 02:05:29;;;;;;;1.50;0.82;;;17.90;94.10;;;;;;4995719;28;20022;-45
2024/02/17 02:07:55;;;;;;;1.13;0.77;;;18.00;94.10;;;;;;4995469;28;20108;-45
2024/02/17 02:10:21;;;;;;;1.08;0.75;;;17.90;94.10;;;;;;4995630;28;20022;-45
2024/02/17 02:12:46;;;;;;;0.95;0.55;;;17.90;94.10;;;;;;4995577;28;20042;-44
2024/02/17 02:15:12;;;;;;;1.00;0.63;;;17.90;94.10;;;;;;4995598;28;20396;-45
2024/02/17 02:17:39;;;;;;;1.85;0.70;;;17.90;94.10;;;;;;4995238;28;20501;-44
2024/02/17 02:20:06;;;;;;;0.70;0.60;;;17.90;94.10;;;;;;4995326;28;20034;-44
2024/02/17 02:22:32;;;;;;;1.27;0.77;;;17.90;94.10;;;;;;4995490;28;20080;-44
2024/02/17 02:24:59;;;;;;;1.30;0.88;;;17.90;94.10;;;;;;4995106;28;20096;-45
2024/02/17 02:27:25;;;;;;;1.17;0.52;;;17.90;94.10;;;;;;4995153;28;20029;-43
2024/02/17 02:29:52;;;;;;;0.98;0.65;;;17.90;94.10;;;;;;4995055;28;20455;-44
2024/02/17 02:32:18;;;;;;;0.95;0.70;;;17.90;94.20;;;;;;4995529;28;20493;-44
2024/02/17 02:34:47;;;;;;;0.90;0.50;;;17.90;94.20;;;;;;4994985;28;20018;-44
2024/02/17 02:37:13;;;;;;;1.35;0.70;;;17.90;94.20;;;;;;4995042;28;20034;-44
2024/02/17 02:39:39;;;;;;;1.10;0.80;;;17.90;94.20;;;;;;4995404;28;20045;-43
2024/02/17 02:42:04;;;;;;;1.02;0.82;;;17.90;94.20;;;;;;4995379;28;20022;-45
2024/02/17 02:44:30;;;;;;;0.75;0.60;;;17.90;94.20;;;;;;4994817;28;20026;-43
2024/02/17 02:46:56;;;;;;;1.30;0.65;;;17.90;94.20;;;;;;4994777;28;20038;-44
2024/02/17 02:49:21;;;;;;;0.90;0.70;;;17.80;94.20;;;;;;4995264;28;20022;-44
2024/02/17 02:51:47;;;;;;;1.00;0.73;;;17.90;94.20;;;;;;4996189;28;20021;-44
2024/02/17 02:54:13;;;;;;;1.05;0.70;;;17.90;94.20;;;;;;4995842;28;20493;-45
2024/02/17 02:56:38;;;;;;;1.23;0.80;;;17.80;94.20;;;;;;4993845;28;20506;-45
2024/02/17 02:59:04;;;;;;;1.20;0.70;;;17.90;94.20;;;;;;4994585;28;20027;-44
2024/02/17 03:01:29;;;;;;;1.33;0.77;;;17.80;94.20;;;;;;4994732;28;20493;-44
2024/02/17 03:03:55;;;;;;;1.20;0.68;;;17.80;94.20;;;;;;4995816;28;20035;-45
2024/02/17 03:06:22;;;;;;;1.27;0.90;;;17.90;94.30;;;;;;4995201;28;20026;-45
2024/02/17 03:08:48;;;;;;;0.95;0.75;;;17.80;94.30;;;;;;4995409;28;20465;-44
2024/02/17 03:11:15;;;;;;;1.10;0.70;;;17.80;94.20;;;;;;4994511;28;20037;-44
2024/02/17 03:13:40;;;;;;;1.00;0.73;;;17.90;94.30;;;;;;4995602;28;20029;-45
2024/02/17 03:16:07;;;;;;;1.02;0.70;;;17.90;94.30;;;;;;4995104;28;20023;-45
2024/02/17 03:18:32;;;;;;;1.25;0.75;;;17.90;94.30;;;;;;4994545;28;20026;-45
2024/02/17 03:20:58;;;;;;;0.65;0.52;;;17.90;94.20;;;;;;4995216;28;20033;-44
2024/02/17 03:23:25;;;;;;;0.82;0.65;;;17.90;94.20;;;;;;4994286;28;20026;-44
2024/02/17 03:25:50;;;;;;;0.77;0.60;;;17.90;94.20;;;;;;4993984;28;20148;-44
2024/02/17 03:28:16;;;;;;;1.67;0.88;;;17.90;94.20;;;;;;4994205;28;20121;-45
2024/02/17 03:30:42;;;;;;;1.23;0.80;;;17.90;94.20;;;;;;4995529;28;20101;-45
2024/02/17 03:33:09;;;;;;;1.25;0.70;;;17.90;94.20;;;;;;4994123;28;20054;-45
2024/02/17 03:35:35;;;;;;;1.08;0.80;;;17.90;94.20;;;;;;4993907;28;20543;-45
2024/02/17 03:38:01;;;;;;;1.05;0.70;;;17.90;94.20;;;;;;4994520;28;20031;-45
2024/02/17 03:40:26;;;;;;;0.95;0.70;;;17.90;94.20;;;;;;4994708;28;20026;-44
2024/02/17 03:42:52;;;;;;;0.90;0.68;;;17.90;94.20;;;;;;4994488;28;20081;-44
2024/02/17 03:45:18;;;;;;;1.70;0.70;;;17.90;94.20;;;;;;4997107;28;20030;-43
2024/02/17 03:47:43;;;;;;;0.90;0.60;;;17.90;94.20;;;;;;4994822;28;20022;-45
2024/02/17 03:50:09;;;;;;;0.80;0.70;;;17.90;94.20;;;;;;4994493;28;20023;-45
2024/02/17 03:52:35;;;;;;;0.63;0.57;;;17.90;94.20;;;;;;4994812;28;20026;-45
2024/02/17 03:55:00;;;;;;;0.73;0.60;;;17.90;94.20;;;;;;4994078;28;20441;-44
2024/02/17 03:57:26;;;;;;;1.00;0.70;;;17.90;94.20;;;;;;4995063;28;20027;-44
2024/02/17 03:59:52;;;;;;;1.35;0.70;;;17.90;94.20;;;;;;4994038;28;20030;-45
2024/02/17 04:02:17;;;;;;;0.90;0.70;;;17.90;94.20;;;;;;4996809;28;20038;-44
2024/02/17 04:04:43;;;;;;;0.63;0.50;;;17.90;94.20;;;;;;4997105;28;20042;-44
2024/02/17 04:07:09;;;;;;;1.17;0.70;;;17.90;94.20;;;;;;4997034;28;20027;-44
2024/02/17 04:09:35;;;;;;;1.10;0.70;;;17.90;94.20;;;;;;4996193;28;20029;-44
2024/02/17 04:12:00;;;;;;;1.17;0.60;;;17.90;94.20;;;;;;4995966;28;20018;-44
2024/02/17 04:14:26;;;;;;;1.50;0.73;;;17.90;94.20;;;;;;4994901;28;20028;-44
2024/02/17 04:16:52;;;;;;;1.05;0.60;;;17.90;94.20;;;;;;4995584;28;20085;-44
2024/02/17 04:19:17;;;;;;;1.00;0.80;;;17.90;94.20;;;;;;4995774;28;20030;-45
2024/02/17 04:21:43;;;;;;;0.70;0.60;;;17.90;94.20;;;;;;4994422;28;20042;-44
2024/02/17 04:24:09;;;;;;;0.70;0.60;;;17.90;94.20;;;;;;4993702;28;20117;-45
2024/02/17 04:26:34;;;;;;;0.95;0.68;;;17.80;94.20;;;;;;4994969;28;20400;-43
2024/02/17 04:29:01;;;;;;;0.73;0.65;;;17.90;94.20;;;;;;4995646;28;20027;-43
2024/02/17 04:31:27;;;;;;;2.38;0.60;;;17.80;94.20;;;;;;4994895;28;20026;-43
2024/02/17 04:33:54;;;;;;;2.25;0.75;;;17.90;94.20;;;;;;4992916;28;20080;-44
2024/02/17 04:36:19;;;;;;;0.75;0.75;;;17.90;94.20;;;;;;4992670;28;20026;-44
2024/02/17 04:38:45;;;;;;;0.88;0.70;;;17.80;94.20;;;;;;4992727;28;20036;-45
2024/02/17 04:41:11;;;;;;;0.88;0.77;;;17.80;94.20;;;;;;4994065;28;20568;-44
2024/02/17 04:43:36;;;;;;;1.00;0.88;;;17.80;94.20;;;;;;4992680;28;20023;-45
2024/02/17 04:46:02;;;;;;;0.88;0.80;;;17.80;94.30;;;;;;4992737;28;20041;-45
2024/02/17 04:48:28;;;;;;;0.73;0.60;;;17.80;94.20;;;;;;4992969;28;20030;-45
2024/02/17 04:50:54;;;;;;;0.90;0.63;;;17.80;94.30;;;;;;4993370;28;20077;-44
2024/02/17 04:53:19;;;;;;;0.90;0.70;;;17.80;94.60;;;;;;4993123;28;20027;-44
2024/02/17 04:55:45;;;;;;;1.00;0.68;;;17.80;94.30;;;;;;4993444;28;20496;-45
2024/02/17 04:58:16;;;;;;;1.00;0.80;;;17.80;94.30;;;;;;4992479;28;20030;-44
2024/02/17 05:00:42;;;;;;;0.73;0.60;;;17.80;94.30;;;;;;4992489;28;20054;-44
2024/02/17 05:03:09;;;;;;;1.10;0.70;;;17.80;94.30;;;;;;4992703;28;20054;-45
2024/02/17 05:05:35;;;;;;;2.22;0.80;;;17.80;94.60;;;;;;4993564;28;20022;-44
2024/02/17 05:08:00;;;;;;;0.85;0.70;;;17.80;94.30;;;;;;4992518;28;20049;-45
2024/02/17 05:10:26;;;;;;;0.60;0.60;;;17.80;94.30;;;;;;4992243;28;20026;-43
2024/02/17 05:12:52;;;;;;;0.80;0.75;;;17.80;94.30;;;;;;4992310;28;20397;-44
2024/02/17 05:15:17;;;;;;;1.00;0.70;;;17.80;94.30;;;;;;4992586;28;20487;-44
2024/02/17 05:17:43;;;;;;;0.60;0.60;;;17.80;94.30;;;;;;4991774;28;20023;-44
2024/02/17 05:20:09;;;;;;;0.75;0.68;;;17.80;94.30;;;;;;4991798;28;20022;-44
2024/02/17 05:22:36;;;;;;;1.13;0.60;;;17.80;94.40;;;;;;4992700;28;20026;-44
2024/02/17 05:25:02;;;;;;;0.60;0.50;;;17.80;94.40;;;;;;4991889;28;20038;-45
2024/02/17 05:27:27;;;;;;;0.73;0.60;;;17.80;94.40;;;;;;4991985;28;20088;-45
2024/02/17 05:29:53;;;;;;;0.95;0.80;;;17.70;94.30;;;;;;4992028;28;20027;-45
2024/02/17 05:32:18;;;;;;;0.60;0.60;;;17.80;94.40;;;;;;4992121;28;20015;-44
2024/02/17 05:34:44;;;;;;;1.13;0.80;;;17.70;94.30;;;;;;4991724;28;20100;-45
2024/02/17 05:37:10;;;;;;;0.60;0.50;;;17.70;94.40;;;;;;4992779;28;20353;-44
2024/02/17 05:39:35;;;;;;;0.73;0.68;;;17.70;94.40;;;;;;4993375;28;20026;-44
2024/02/17 05:42:02;;;;;;;1.13;0.80;;;17.70;94.40;;;;;;4992137;28;20042;-45
2024/02/17 05:44:28;;;;;;;0.82;0.70;;;17.70;94.70;;;;;;4992433;28;20420;-44
2024/02/17 05:46:53;;;;;;;1.13;0.77;;;17.70;94.40;;;;;;4991894;28;20054;-45
2024/02/17 05:49:21;;;;;;;0.80;0.70;;;17.70;94.40;;;;;;5007480;28;20104;-44
2024/02/17 05:51:50;;;;;;;0.65;0.65;;;17.70;94.40;;;;;;4992535;28;20033;-45
2024/02/17 05:54:18;;;;;;;0.70;0.70;;;17.70;94.40;;;;;;4992772;28;20022;-44
2024/02/17 05:56:45;;;;;;;1.02;0.80;;;17.70;94.40;;;;;;4992475;28;20023;-44
2024/02/17 05:59:11;;;;;;;1.13;0.93;;;17.70;94.40;;;;;;4992636;28;20085;-45
2024/02/17 06:01:36;;;;;;;0.85;0.60;;;17.70;94.40;;;;;;4993209;28;20038;-45
2024/02/17 06:04:03;;;;;;;1.00;0.77;;;17.70;94.40;;;;;;4992041;28;20429;-43
2024/02/17 06:06:28;;;;;;;1.00;0.65;;;17.70;94.40;;;;;;4991960;28;20050;-45
2024/02/17 06:08:54;;;;;;;0.80;0.70;;;17.70;94.40;;;;;;4991639;28;20027;-45
2024/02/17 06:11:20;;;;;;;1.13;0.73;;;17.70;94.40;;;;;;4992947;28;20032;-44
2024/02/17 06:13:45;;;;;;;1.00;0.90;;;17.70;94.40;;;;;;4991738;28;20395;-45
2024/02/17 06:16:11;;;;;;;0.90;0.80;;;17.70;94.40;;;;;;4990654;28;20018;-44
2024/02/17 06:21:24;;;;;;;0.90;0.77;;;17.70;94.50;;;;;;4992333;28;20051;-45
2024/02/17 06:23:53;;;;;;;1.00;0.90;;;17.70;94.50;;;;;;4991706;28;20485;-44
2024/02/17 06:26:23;;;;;;;1.55;1.00;;;17.70;94.50;;;;;;4991907;28;20030;-44
2024/02/17 06:28:48;;;;;;;1.35;0.82;;;17.70;94.50;;;;;;4991714;28;20022;-43
2024/02/17 06:31:14;;;;;;;1.80;0.80;;;17.70;94.50;;;;;;4995250;28;20436;-44
2024/02/17 06:33:40;;;;;;;0.85;0.80;;;17.70;94.50;;;;;;4995998;28;20027;-44
2024/02/17 06:36:06;;;;;;;1.23;0.80;;;17.70;94.50;;;;;;4995282;28;20140;-44
2024/02/17 06:38:32;;;;;;;1.40;0.82;;;17.70;94.50;;;;;;4993796;28;20519;-44
2024/02/17 06:40:57;;;;;;;0.90;0.80;;;17.70;94.60;;;;;;4995162;28;20061;-44
2024/02/17 06:43:23;;;;;;;0.88;0.70;;;17.70;94.50;;;;;;4995269;28;20042;-45
2024/02/17 06:45:49;;;;;;;1.13;0.90;;;17.70;94.50;;;;;;4995072;28;20077;-45
2024/02/17 06:48:15;;;;;;;1.20;1.10;;;17.70;94.50;;;;;;4994796;28;20507;-45
2024/02/17 06:50:40;;;;;;;1.45;1.17;;;17.70;94.50;;;;;;4995254;28;20022;-45
2024/02/17 06:53:06;;;;;;;1.15;1.05;;;17.70;94.60;;;;;;4994847;28;20373;-45
2024/02/17 06:55:32;;;;;;;0.88;0.85;;;17.70;94.60;;;;;;4994632;28;20400;-44
2024/02/17 06:57:57;;;;;;;1.17;1.02;;;17.70;94.60;;;;;;4994683;28;20117;-45
2024/02/17 07:00:23;;;;;;;1.15;0.90;;;17.70;94.60;;;;;;4994626;28;20026;-45
2024/02/17 07:02:49;;;;;;;1.33;1.10;;;17.60;94.50;;;;;;4994558;28;20089;-45
2024/02/17 07:05:15;;;;;;;1.20;0.90;;;17.60;94.60;;;;;;4995323;28;20050;-45
2024/02/17 07:07:41;;;;;;;1.20;0.90;;;17.60;94.60;;;;;;4995162;28;20065;-46
2024/02/17 07:10:08;;;;;;;0.80;0.70;;;17.60;94.60;;;;;;4995073;28;20046;-44
2024/02/17 07:12:34;;;;;;;1.45;1.10;;;17.60;94.60;;;;;;4994746;28;20109;-46
2024/02/17 07:15:00;;;;;;;1.20;1.10;;;17.60;94.60;;;;;;4994429;28;20025;-46
2024/02/17 07:17:27;;;;;;;1.25;1.02;;;17.60;94.70;;;;;;4994439;28;20089;-46
2024/02/17 07:19:52;;;;;;;1.55;1.27;;;17.60;94.70;;;;;;4994267;28;20400;-46
2024/02/17 07:22:18;;;;;;;1.38;1.10;;;17.60;95.00;;;;;;4994653;28;20030;-46
2024/02/17 07:24:43;;;;;;;1.08;0.90;;;17.60;94.70;;;;;;4994012;28;20049;-46
2024/02/17 07:27:09;;;;;;;1.17;1.05;;;17.60;94.70;;;;;;4994238;28;20073;-45
2024/02/17 07:29:38;;;;;;;0.90;0.80;;;17.60;94.70;;;;;;4994157;28;20630;-45
2024/02/17 07:32:05;;;;;;;1.42;1.05;;;17.60;94.70;;;;;;4992752;28;20115;-46
2024/02/17 07:34:31;;;;;;;1.35;1.13;;;17.60;94.70;;;;;;4992619;28;20027;-46
2024/02/17 07:36:58;;;;;;;1.98;1.30;;;17.60;94.70;;;;;;4994003;28;20030;-46
2024/02/17 07:39:24;;;;;;;1.42;1.33;;;17.60;94.70;;;;;;4994360;28;20022;-46
2024/02/17 07:41:53;;;;;;;1.88;1.40;;;17.60;94.70;;;;;;4993461;28;20377;-45
2024/02/17 07:44:20;;;;;;;1.30;1.10;;;17.60;94.60;;;;;;4993796;28;20030;-45
2024/02/17 07:46:50;;;;;;;1.40;1.20;;;17.60;94.60;;;;;;4993712;28;20400;-45
2024/02/17 07:49:17;;;;;;;1.23;1.00;;;17.60;94.60;;;;;;4992462;28;20507;-46
2024/02/17 07:51:43;;;;;;;1.52;1.10;;;17.60;94.60;;;;;;4993975;28;20080;-45
2024/02/17 07:54:09;;;;;;;1.27;1.00;;;17.70;94.60;;;;;;4994438;28;20477;-45
2024/02/17 07:56:34;;;;;;;1.90;1.15;;;17.60;94.60;;;;;;4993503;28;20022;-46
2024/02/17 07:59:00;;;;;;;0.82;0.75;;;17.70;94.60;;;;;;4993597;28;20042;-45
2024/02/17 08:01:26;;;;;;;1.38;0.90;;;17.60;94.60;;;;;;4993590;28;20035;-46
2024/02/17 08:03:51;;;;;;;1.10;1.00;;;17.70;94.60;;;;;;4993553;28;20028;-45
2024/02/17 08:06:21;;;;;;;1.10;0.90;;;17.70;94.60;;;;;;4993356;28;20105;-46
2024/02/17 08:08:47;;;;;;;1.23;0.90;;;17.70;94.60;;;;;;4993160;28;20125;-45
2024/02/17 08:11:14;;;;;;;1.10;1.00;;;17.70;94.60;;;;;;4994599;28;20022;-46
2024/02/17 08:13:39;;;;;;;1.30;1.20;;;17.70;94.60;;;;;;4993752;28;20060;-45
2024/02/17 08:16:05;;;;;;;1.40;1.30;;;17.70;94.60;;;;;;4993242;28;20022;-45
2024/02/17 08:18:31;;;;;;;1.08;0.98;;;17.70;94.60;;;;;;4993276;28;20074;-46
2024/02/17 08:20:58;;;;;;;1.20;1.00;;;17.70;94.50;;;;;;4993078;28;20045;-46
2024/02/17 08:23:28;;;;;;;0.93;0.88;;;17.70;94.50;;;;;;4993116;28;20030;-46
2024/02/17 08:25:54;;;;;;;0.90;0.80;;;17.70;94.50;;;;;;4992830;28;20122;-46
2024/02/17 08:28:20;;;;;;;1.10;1.00;;;17.70;94.50;;;;;;4993250;28;20469;-45
2024/02/17 08:30:46;;;;;;;1.00;0.90;;;17.70;94.50;;;;;;4993198;28;20034;-46
2024/02/17 08:33:11;;;;;;;0.80;0.80;;;17.70;94.50;;;;;;4993124;28;20049;-46
2024/02/17 08:35:37;;;;;;;1.27;0.90;;;17.80;94.50;;;;;;4992845;28;20030;-46
2024/02/17 08:38:03;;;;;;;1.40;0.82;;;17.80;94.50;;;;;;4992695;28;20539;-46
2024/02/17 08:40:29;;;;;;;1.15;0.88;;;17.80;94.50;;;;;;4993047;28;20030;-45
2024/02/17 08:42:55;;;;;;;0.85;0.80;;;17.80;94.50;;;;;;4993680;28;20034;-45
2024/02/17 08:45:21;;;;;;;1.00;0.77;;;17.90;94.50;;;;;;4992651;28;20026;-46
2024/02/17 08:47:46;;;;;;;1.10;1.00;;;17.90;94.40;;;;;;4992597;28;20435;-44
2024/02/17 08:50:15;;;;;;;1.33;0.95;;;17.90;94.40;;;;;;4993316;28;20069;-46
2024/02/17 08:52:40;;;;;;;0.90;0.70;;;18.00;94.40;;;;;;4991989;28;20110;-45
2024/02/17 08:55:06;;;;;;;1.23;0.95;;;18.00;94.30;;;;;;4992606;28;20106;-45
2024/02/17 08:57:32;;;;;;;0.90;0.80;;;18.10;94.30;;;;;;4992613;28;20030;-45
2024/02/17 08:59:59;;;;;;;1.55;0.80;;;18.10;94.20;;;;;;4992546;28;20037;-46
2024/02/17 09:02:25;;;;;;;1.40;0.90;;;18.10;94.20;;;;;;4992497;28;20026;-47
2024/02/17 09:04:51;;;;;;;1.20;0.70;;;18.20;94.20;;;;;;4992807;28;20121;-46
2024/02/17 09:07:16;;;;;;;0.90;0.65;;;18.20;94.20;;;;;;4992111;28;20041;-46
2024/02/17 09:09:42;;;;;;;0.90;0.60;;;18.20;94.10;;;;;;4992199;28;20094;-46
2024/02/17 09:12:08;;;;;;;0.60;0.60;;;18.30;94.10;;;;;;4992323;28;20473;-46
2024/02/17 09:14:34;;;;;;;0.70;0.70;;;18.40;94.10;;;;;;4992418;28;20022;-46
2024/02/17 09:17:00;;;;;;;0.70;0.60;;;18.40;94.00;;;;;;4992265;28;20026;-46
2024/02/17 09:19:26;;;;;;;0.98;0.60;;;18.50;94.00;;;;;;4992100;28;20415;-46
2024/02/17 09:21:52;;;;;;;0.68;0.50;;;18.50;93.90;;;;;;4992102;28;20026;-46
2024/02/17 09:24:25;;;;;;;1.55;0.70;;;18.60;93.90;;;;;;4992618;28;20029;-46
2024/02/17 09:26:51;;;;;;;0.70;0.60;;;18.60;93.80;;;;;;4992645;28;20026;-46
2024/02/17 09:29:16;;;;;;;0.77;0.60;;;18.70;93.80;;;;;;4991994;28;20030;-45
2024/02/17 09:31:42;;;;;;;0.70;0.60;;;18.80;93.80;;;;;;4992177;28;20114;-45
2024/02/17 09:34:07;;;;;;;0.80;0.60;;;18.80;94.00;;;;;;4992946;28;20081;-45
2024/02/17 09:36:33;;;;;;;0.55;0.50;;;18.90;93.60;;;;;;4991803;28;20027;-45
2024/02/17 09:38:59;;;;;;;1.00;0.63;;;19.00;93.60;;;;;;4991825;28;20077;-46
2024/02/17 09:41:24;;;;;;;0.60;0.57;;;19.00;93.60;;;;;;4991946;28;20037;-46
2024/02/17 09:43:50;;;;;;;0.88;0.77;;;19.10;93.50;;;;;;4991953;28;20022;-45
2024/02/17 09:46:17;;;;;;;0.60;0.50;;;19.20;93.50;;;;;;4991816;28;20570;-44
2024/02/17 09:48:43;;;;;;;2.45;0.60;;;19.20;93.40;;;;;;4991595;28;20030;-45
2024/02/17 09:51:09;;;;;;;1.05;0.70;;;19.30;93.30;;;;;;4991999;28;20065;-47
2024/02/17 09:53:38;;;;;;;0.50;0.40;;;19.40;93.30;;;;;;4991890;28;20039;-45
2024/02/17 09:56:05;;;;;;;0.70;0.50;;;19.50;93.20;;;;;;4992448;28;20392;-45
2024/02/17 09:58:31;;;;;;;0.85;0.68;;;19.60;93.20;;;;;;4991888;28;20087;-45
2024/02/17 10:00:59;;;;;;;0.63;0.60;;;19.60;93.10;;;;;;4991855;28;20034;-46
2024/02/17 10:03:26;;;;;;;0.38;0.38;;;19.70;93.00;;;;;;4991765;28;20073;-44
2024/02/17 10:05:52;;;;;;;0.77;0.52;;;19.80;93.00;;;;;;4995001;28;20034;-45
2024/02/17 10:08:17;;;;;;;1.55;0.60;;;19.90;92.90;;;;;;4995833;28;20045;-45
2024/02/17 10:10:43;;;;;;;0.77;0.50;;;19.90;92.80;;;;;;4995553;28;20030;-45
2024/02/17 10:13:17;;;;;;;0.80;0.40;;;20.00;92.70;;;;;;4995605;28;20022;-46
2024/02/17 10:15:43;;;;;;;0.52;0.40;;;20.10;92.60;;;;;;4995872;28;20023;-46
2024/02/17 10:18:12;;;;;;;1.25;0.65;;;20.20;92.50;;;;;;4995544;28;20033;-45
2024/02/17 10:20:37;;;;;;;1.30;0.50;;;20.30;92.40;;;;;;4995498;28;20019;-45
2024/02/17 10:23:03;;;;;;;1.02;0.80;;;20.40;92.30;;;;;;4996057;28;20451;-44
2024/02/17 10:25:28;;;;;;;2.30;1.30;;;20.40;92.10;;;;;;4995136;28;20046;-45
2024/02/17 10:27:55;;;;;;;3.08;1.48;;;20.50;92.00;;;;;;4995411;28;20057;-44
2024/02/17 10:30:20;;;;;;;1.35;1.10;;;20.50;91.90;;;;;;4995524;28;20481;-44
2024/02/17 10:32:46;;;;;;;2.83;1.50;;;20.60;91.80;;;;;;4995269;28;20034;-43
2024/02/17 10:35:12;;;;;;;2.38;1.40;;;20.60;91.80;;;;;;4994989;28;20033;-45
2024/02/17 10:37:39;;;;;;;2.10;1.42;;;20.60;91.70;;;;;;4995017;28;20038;-44
2024/02/17 10:40:07;;;;;;;1.85;1.33;;;20.70;91.70;;;;;;4995558;28;20080;-44
2024/02/17 10:42:37;;;;;;;2.60;1.42;;;20.70;91.60;;;;;;4996476;28;20061;-45
2024/02/17 10:45:03;;;;;;;2.00;1.40;;;20.70;91.60;;;;;;5011352;28;20022;-44
2024/02/17 10:47:36;;;;;;;2.63;1.20;;;20.70;91.50;;;;;;4996113;28;20523;-44
2024/02/17 10:50:18;;;;;;;3.83;1.83;;;20.70;91.50;;;;;;4997182;28;20495;-44
2024/02/17 10:52:47;;;;;;;2.03;1.30;;;20.80;91.50;;;;;;4994983;28;20104;-44
2024/02/17 10:55:14;;;;;;;3.65;1.50;;;20.80;91.40;;;;;;4994986;28;20473;-44
2024/02/17 10:57:54;;;;;;;1.90;1.30;;;20.80;91.40;;;;;;4994703;28;20033;-45
2024/02/17 11:00:21;;;;;;;1.75;1.33;;;20.80;91.40;;;;;;4994728;28;20033;-44
2024/02/17 11:02:49;;;;;;;3.05;1.17;;;20.80;91.40;;;;;;4994828;28;20400;-45
2024/02/17 11:05:19;;;;;;;2.92;1.40;;;20.80;91.30;;;;;;4994523;28;20029;-44
2024/02/17 11:07:46;;;;;;;1.70;1.10;;;20.70;91.30;;;;;;4994935;28;20081;-44
2024/02/17 11:10:13;;;;;;;2.35;1.17;;;20.80;91.30;;;;;;4994631;28;20034;-44
2024/02/17 11:12:47;;;;;;;1.92;1.33;;;20.70;91.30;;;;;;4994466;28;20439;-44
2024/02/17 11:15:12;;;;;;;1.20;0.90;;;20.70;91.40;;;;;;4994513;28;20026;-44
2024/02/17 11:17:40;;;;;;;4.90;1.33;;;20.70;91.40;;;;;;4993729;28;20026;-44
2024/02/17 11:20:14;;;;;;;3.03;0.90;;;20.70;91.40;;;;;;4994265;28;20023;-44
2024/02/17 11:22:59;;;;;;;1.92;0.98;;;20.70;91.40;;;;;;4994284;28;20065;-44
2024/02/17 11:25:35;;;;;;;1.20;0.98;;;20.70;91.40;;;;;;4994130;28;20412;-44
2024/02/17 11:28:05;;;;;;;1.80;1.05;;;20.70;91.40;;;;;;4994121;28;20444;-44
2024/02/17 11:30:50;;;;;;;2.42;1.10;;;20.70;91.40;;;;;;4994066;28;20025;-44
2024/02/17 11:33:18;;;;;;;2.25;1.08;;;20.70;91.40;;;;;;4994071;28;20586;-44
2024/02/17 11:35:48;;;;;;;0.98;0.80;;;20.70;91.40;;;;;;4994449;28;20385;-44
2024/02/17 11:38:21;;;;;;;1.23;0.88;;;20.70;91.50;;;;;;4994165;28;20489;-46
2024/02/17 11:40:49;;;;;;;1.30;0.90;;;20.70;91.80;;;;;;4994039;28;20038;-44
2024/02/17 11:43:15;;;;;;;1.83;1.05;;;20.70;91.50;;;;;;4994497;28;20109;-44
2024/02/17 11:45:40;;;;;;;1.33;1.00;;;20.70;91.40;;;;;;4992671;28;20563;-44
2024/02/17 11:48:07;;;;;;;1.92;0.90;;;20.70;91.40;;;;;;4993604;28;20031;-44
2024/02/17 11:50:32;;;;;;;1.27;1.08;;;20.70;91.40;;;;;;4992354;28;20033;-44
2024/02/17 11:53:00;;;;;;;1.20;0.82;;;20.80;91.40;;;;;;4993751;28;20035;-44
2024/02/17 11:55:26;;;;;;;1.27;0.80;;;20.80;91.30;;;;;;4993539;28;20481;-44
2024/02/17 11:57:56;;;;;;;1.83;0.70;;;20.80;91.30;;;;;;4993457;28;20026;-44
2024/02/17 12:00:24;;;;;;;1.70;0.90;;;20.80;91.30;;;;;;4993550;28;20116;-44
2024/02/17 12:02:50;;;;;;;1.40;0.80;;;20.80;91.20;;;;;;4993561;28;20027;-44
2024/02/17 12:05:16;;;;;;;2.70;1.20;;;20.80;91.20;;;;;;4993387;28;20038;-44
2024/02/17 12:07:42;;;;;;;1.42;0.80;;;20.80;91.20;;;;;;4993328;28;20031;-44
2024/02/17 12:10:08;;;;;;;1.05;0.70;;;20.80;91.10;;;;;;4993350;28;20023;-44
2024/02/17 12:12:39;;;;;;;0.93;0.60;;;20.90;91.20;;;;;;4993244;28;20366;-44
2024/02/17 12:15:11;;;;;;;0.88;0.52;;;20.90;91.20;;;;;;4993256;28;20029;-45
2024/02/17 12:17:43;;;;;;;1.25;0.80;;;20.90;91.20;;;;;;4994706;28;20034;-45
2024/02/17 12:20:17;;;;;;;2.42;0.88;;;21.00;91.10;;;;;;4994476;28;20438;-44
2024/02/17 12:22:45;;;;;;;;;;;21.10;91.10;;;;;;4995181;28;20026;-45
2024/02/17 12:25:16;;;;;;;1.35;0.77;;;21.10;91.00;;;;;;4993835;28;19918;-45
2024/02/17 12:27:45;;;;;;;1.55;0.70;;;21.10;91.00;;;;;;4992503;28;20034;-44
2024/02/17 12:30:13;;;;;;;1.10;0.70;;;21.20;91.00;;;;;;4993807;28;20057;-44
2024/02/17 12:32:40;;;;;;;1.73;0.60;;;21.30;90.90;;;;;;5009232;28;20029;-44
2024/02/17 12:35:17;;;;;;;0.80;0.60;;;21.40;90.80;;;;;;4993936;28;20429;-40
2024/02/17 12:37:48;;;;;;;1.10;0.70;;;21.50;90.80;;;;;;4994786;28;20026;-43
2024/02/17 12:40:15;;;;;;;1.33;0.65;;;21.50;90.70;;;;;;4995394;28;20029;-44
2024/02/17 12:42:42;;;;;;;1.08;0.60;;;21.50;90.60;;;;;;4994171;28;20767;-45
2024/02/17 12:45:21;;;;;;;1.50;0.70;;;21.50;90.50;;;;;;4992720;28;20527;-44
2024/02/17 12:47:47;;;;;;;1.15;0.60;;;21.50;90.20;;;;;;4992571;28;20034;-45